sensor_id;sensor_type;location;lat;lon;timestamp;temperature;humidity
73254;DHT22;61474;50.834;4.552;2022-08-11T00:01:36;27.50;31.80
73254;DHT22;61474;50.834;4.552;2022-08-11T00:04:04;27.50;31.80
73254;DHT22;61474;50.834;4.552;2022-08-11T00:06:35;27.50;32.10
73254;DHT22;61474;50.834;4.552;2022-08-11T00:09:04;27.50;31.90
73254;DHT22;61474;50.834;4.552;2022-08-11T00:11:38;27.50;32.10
73254;DHT22;61474;50.834;4.552;2022-08-11T00:14:22;27.50;31.80
73254;DHT22;61474;50.834;4.552;2022-08-11T00:16:57;27.50;31.80
73254;DHT22;61474;50.834;4.552;2022-08-11T00:19:26;27.50;31.90
73254;DHT22;61474;50.834;4.552;2022-08-11T00:21:53;27.50;32.00
73254;DHT22;61474;50.834;4.552;2022-08-11T00:24:20;27.40;31.90
73254;DHT22;61474;50.834;4.552;2022-08-11T00:26:48;27.50;32.00
73254;DHT22;61474;50.834;4.552;2022-08-11T00:29:14;27.40;32.00
73254;DHT22;61474;50.834;4.552;2022-08-11T00:31:54;27.40;32.00
73254;DHT22;61474;50.834;4.552;2022-08-11T00:34:26;27.40;32.10
73254;DHT22;61474;50.834;4.552;2022-08-11T00:36:54;27.40;31.90
73254;DHT22;61474;50.834;4.552;2022-08-11T00:39:22;27.40;32.10
73254;DHT22;61474;50.834;4.552;2022-08-11T00:50:34;27.40;32.20
73254;DHT22;61474;50.834;4.552;2022-08-11T00:59:14;27.30;32.40
73254;DHT22;61474;50.834;4.552;2022-08-11T01:18:09;27.50;33.20
73254;DHT22;61474;50.834;4.552;2022-08-11T01:48:44;27.40;32.70
73254;DHT22;61474;50.834;4.552;2022-08-11T01:51:30;27.40;32.70
73254;DHT22;61474;50.834;4.552;2022-08-11T01:54:02;27.40;32.70
73254;DHT22;61474;50.834;4.552;2022-08-11T01:56:35;27.30;32.80
73254;DHT22;61474;50.834;4.552;2022-08-11T01:59:28;27.30;32.90
73254;DHT22;61474;50.834;4.552;2022-08-11T02:08:00;27.30;33.00
73254;DHT22;61474;50.834;4.552;2022-08-11T02:10:51;27.20;32.90
73254;DHT22;61474;50.834;4.552;2022-08-11T02:13:56;27.20;32.90
73254;DHT22;61474;50.834;4.552;2022-08-11T02:16:54;27.20;32.90
73254;DHT22;61474;50.834;4.552;2022-08-11T02:25:37;27.20;33.10
73254;DHT22;61474;50.834;4.552;2022-08-11T02:28:21;27.20;33.00
73254;DHT22;61474;50.834;4.552;2022-08-11T02:50:38;27.20;33.20
73254;DHT22;61474;50.834;4.552;2022-08-11T02:58:56;27.20;33.30
73254;DHT22;61474;50.834;4.552;2022-08-11T03:01:48;27.20;33.30
73254;DHT22;61474;50.834;4.552;2022-08-11T03:04:24;27.30;33.30
73254;DHT22;61474;50.834;4.552;2022-08-11T03:07:02;27.20;33.30
73254;DHT22;61474;50.834;4.552;2022-08-11T03:09:46;27.20;33.50
73254;DHT22;61474;50.834;4.552;2022-08-11T03:12:23;27.30;34.10
73254;DHT22;61474;50.834;4.552;2022-08-11T03:15:23;27.20;33.40
73254;DHT22;61474;50.834;4.552;2022-08-11T03:18:27;27.30;33.40
73254;DHT22;61474;50.834;4.552;2022-08-11T03:26:32;27.30;33.60
73254;DHT22;61474;50.834;4.552;2022-08-11T03:29:29;27.30;33.40
73254;DHT22;61474;50.834;4.552;2022-08-11T03:34:35;27.20;33.60
73254;DHT22;61474;50.834;4.552;2022-08-11T03:38:09;27.20;33.50
73254;DHT22;61474;50.834;4.552;2022-08-11T03:46:07;27.20;33.70
73254;DHT22;61474;50.834;4.552;2022-08-11T03:48:47;27.10;33.70
73254;DHT22;61474;50.834;4.552;2022-08-11T03:51:22;27.20;33.80
73254;DHT22;61474;50.834;4.552;2022-08-11T03:57:43;27.20;33.70
73254;DHT22;61474;50.834;4.552;2022-08-11T04:22:14;27.30;34.10
73254;DHT22;61474;50.834;4.552;2022-08-11T04:30:08;27.40;34.10
73254;DHT22;61474;50.834;4.552;2022-08-11T04:53:14;27.40;34.80
73254;DHT22;61474;50.834;4.552;2022-08-11T04:56:21;27.30;34.90
73254;DHT22;61474;50.834;4.552;2022-08-11T05:11:18;27.40;35.20
73254;DHT22;61474;50.834;4.552;2022-08-11T05:13:50;27.40;35.20
73254;DHT22;61474;50.834;4.552;2022-08-11T05:16:51;27.40;35.10
73254;DHT22;61474;50.834;4.552;2022-08-11T05:19:35;27.40;35.70
73254;DHT22;61474;50.834;4.552;2022-08-11T05:22:27;27.40;35.60
73254;DHT22;61474;50.834;4.552;2022-08-11T05:25:17;27.40;35.90
73254;DHT22;61474;50.834;4.552;2022-08-11T05:28:10;27.40;35.90
73254;DHT22;61474;50.834;4.552;2022-08-11T05:30:57;27.40;36.10
73254;DHT22;61474;50.834;4.552;2022-08-11T05:33:48;27.40;35.90
73254;DHT22;61474;50.834;4.552;2022-08-11T05:36:44;27.40;35.50
73254;DHT22;61474;50.834;4.552;2022-08-11T05:39:25;27.40;36.00
73254;DHT22;61474;50.834;4.552;2022-08-11T05:42:11;27.40;35.90
73254;DHT22;61474;50.834;4.552;2022-08-11T05:45:04;27.40;36.00
73254;DHT22;61474;50.834;4.552;2022-08-11T05:47:53;27.40;36.30
73254;DHT22;61474;50.834;4.552;2022-08-11T05:50:38;27.40;36.00
73254;DHT22;61474;50.834;4.552;2022-08-11T05:53:23;27.40;35.90
73254;DHT22;61474;50.834;4.552;2022-08-11T05:56:09;27.40;35.80
73254;DHT22;61474;50.834;4.552;2022-08-11T05:58:52;27.50;35.70
73254;DHT22;61474;50.834;4.552;2022-08-11T06:01:26;27.50;35.50
73254;DHT22;61474;50.834;4.552;2022-08-11T06:03:54;27.50;35.60
73254;DHT22;61474;50.834;4.552;2022-08-11T06:06:59;27.20;36.10
73254;DHT22;61474;50.834;4.552;2022-08-11T06:09:32;27.00;36.70
73254;DHT22;61474;50.834;4.552;2022-08-11T06:14:29;26.80;37.50
73254;DHT22;61474;50.834;4.552;2022-08-11T06:16:58;26.80;38.00
73254;DHT22;61474;50.834;4.552;2022-08-11T06:19:46;26.90;38.90
73254;DHT22;61474;50.834;4.552;2022-08-11T06:22:11;26.80;38.90
73254;DHT22;61474;50.834;4.552;2022-08-11T06:24:40;27.00;38.70
73254;DHT22;61474;50.834;4.552;2022-08-11T06:27:07;27.10;38.30
73254;DHT22;61474;50.834;4.552;2022-08-11T06:29:35;27.10;38.20
73254;DHT22;61474;50.834;4.552;2022-08-11T06:32:06;27.20;37.90
73254;DHT22;61474;50.834;4.552;2022-08-11T06:37:38;27.20;37.90
73254;DHT22;61474;50.834;4.552;2022-08-11T06:43:09;27.20;37.50
73254;DHT22;61474;50.834;4.552;2022-08-11T06:45:58;27.20;37.50
73254;DHT22;61474;50.834;4.552;2022-08-11T06:48:31;27.30;38.60
73254;DHT22;61474;50.834;4.552;2022-08-11T06:51:06;27.30;37.40
73254;DHT22;61474;50.834;4.552;2022-08-11T06:53:48;27.40;37.10
73254;DHT22;61474;50.834;4.552;2022-08-11T06:56:15;27.30;37.10
73254;DHT22;61474;50.834;4.552;2022-08-11T06:59:04;27.30;37.30
73254;DHT22;61474;50.834;4.552;2022-08-11T07:02:11;27.30;37.70
73254;DHT22;61474;50.834;4.552;2022-08-11T07:05:02;27.30;38.20
73254;DHT22;61474;50.834;4.552;2022-08-11T07:13:34;27.40;38.50
73254;DHT22;61474;50.834;4.552;2022-08-11T07:16:26;27.40;38.00
73254;DHT22;61474;50.834;4.552;2022-08-11T07:19:02;27.30;37.90
73254;DHT22;61474;50.834;4.552;2022-08-11T07:21:47;27.20;37.90
73254;DHT22;61474;50.834;4.552;2022-08-11T07:24:42;27.20;38.00
73254;DHT22;61474;50.834;4.552;2022-08-11T07:27:41;27.20;38.10
73254;DHT22;61474;50.834;4.552;2022-08-11T07:30:27;27.20;38.10
73254;DHT22;61474;50.834;4.552;2022-08-11T07:32:58;27.20;38.00
73254;DHT22;61474;50.834;4.552;2022-08-11T07:38:00;27.30;39.70
73254;DHT22;61474;50.834;4.552;2022-08-11T07:40:27;27.40;38.80
73254;DHT22;61474;50.834;4.552;2022-08-11T07:42:54;27.40;38.10
73254;DHT22;61474;50.834;4.552;2022-08-11T07:45:22;27.40;37.80
73254;DHT22;61474;50.834;4.552;2022-08-11T07:48:07;27.40;37.90
73254;DHT22;61474;50.834;4.552;2022-08-11T07:50:52;27.40;39.60
73254;DHT22;61474;50.834;4.552;2022-08-11T07:53:37;27.50;39.10
73254;DHT22;61474;50.834;4.552;2022-08-11T07:56:04;27.50;39.60
73254;DHT22;61474;50.834;4.552;2022-08-11T07:58:31;27.50;39.30
73254;DHT22;61474;50.834;4.552;2022-08-11T08:01:22;27.50;38.90
73254;DHT22;61474;50.834;4.552;2022-08-11T08:04:09;27.50;38.90
73254;DHT22;61474;50.834;4.552;2022-08-11T08:06:55;27.50;38.60
73254;DHT22;61474;50.834;4.552;2022-08-11T08:09:40;27.60;38.40
73254;DHT22;61474;50.834;4.552;2022-08-11T08:12:25;27.60;38.20
73254;DHT22;61474;50.834;4.552;2022-08-11T08:15:11;27.60;38.50
73254;DHT22;61474;50.834;4.552;2022-08-11T08:17:58;27.60;38.50
73254;DHT22;61474;50.834;4.552;2022-08-11T08:20:30;27.60;38.10
73254;DHT22;61474;50.834;4.552;2022-08-11T08:22:58;27.60;38.10
73254;DHT22;61474;50.834;4.552;2022-08-11T08:25:33;27.60;39.10
73254;DHT22;61474;50.834;4.552;2022-08-11T08:28:02;27.60;38.50
73254;DHT22;61474;50.834;4.552;2022-08-11T08:30:29;27.60;38.10
73254;DHT22;61474;50.834;4.552;2022-08-11T08:33:21;27.60;37.90
73254;DHT22;61474;50.834;4.552;2022-08-11T08:35:51;27.60;38.50
73254;DHT22;61474;50.834;4.552;2022-08-11T08:38:18;27.60;37.50
73254;DHT22;61474;50.834;4.552;2022-08-11T08:40:44;27.60;37.80
73254;DHT22;61474;50.834;4.552;2022-08-11T08:43:14;27.60;38.30
73254;DHT22;61474;50.834;4.552;2022-08-11T08:45:41;27.60;37.80
73254;DHT22;61474;50.834;4.552;2022-08-11T08:48:19;27.60;37.80
73254;DHT22;61474;50.834;4.552;2022-08-11T08:51:03;27.60;37.80
73254;DHT22;61474;50.834;4.552;2022-08-11T08:53:50;27.60;38.00
73254;DHT22;61474;50.834;4.552;2022-08-11T08:56:17;27.60;37.20
73254;DHT22;61474;50.834;4.552;2022-08-11T08:58:47;27.60;37.60
73254;DHT22;61474;50.834;4.552;2022-08-11T09:01:14;27.70;38.80
73254;DHT22;61474;50.834;4.552;2022-08-11T09:03:41;27.60;37.90
73254;DHT22;61474;50.834;4.552;2022-08-11T09:06:07;27.60;37.60
73254;DHT22;61474;50.834;4.552;2022-08-11T09:08:33;27.60;37.80
73254;DHT22;61474;50.834;4.552;2022-08-11T09:11:00;27.60;37.90
73254;DHT22;61474;50.834;4.552;2022-08-11T09:13:45;27.70;37.80
73254;DHT22;61474;50.834;4.552;2022-08-11T09:16:12;27.70;37.60
73254;DHT22;61474;50.834;4.552;2022-08-11T09:18:39;27.70;36.80
73254;DHT22;61474;50.834;4.552;2022-08-11T09:21:13;27.70;37.30
73254;DHT22;61474;50.834;4.552;2022-08-11T09:23:40;27.70;36.70
73254;DHT22;61474;50.834;4.552;2022-08-11T09:26:24;27.70;36.40
73254;DHT22;61474;50.834;4.552;2022-08-11T09:29:09;27.70;38.30
73254;DHT22;61474;50.834;4.552;2022-08-11T09:31:36;27.70;37.30
73254;DHT22;61474;50.834;4.552;2022-08-11T09:34:02;27.70;36.90
73254;DHT22;61474;50.834;4.552;2022-08-11T09:36:27;27.70;36.70
73254;DHT22;61474;50.834;4.552;2022-08-11T09:39:13;27.70;36.60
73254;DHT22;61474;50.834;4.552;2022-08-11T09:42:01;27.70;36.80
73254;DHT22;61474;50.834;4.552;2022-08-11T09:44:29;27.70;36.70
73254;DHT22;61474;50.834;4.552;2022-08-11T09:47:24;27.70;36.80
73254;DHT22;61474;50.834;4.552;2022-08-11T09:49:54;27.70;36.20
73254;DHT22;61474;50.834;4.552;2022-08-11T09:52:21;27.70;36.90
73254;DHT22;61474;50.834;4.552;2022-08-11T09:54:48;27.70;36.80
73254;DHT22;61474;50.834;4.552;2022-08-11T09:57:19;27.70;36.80
73254;DHT22;61474;50.834;4.552;2022-08-11T10:00:09;27.70;37.30
73254;DHT22;61474;50.834;4.552;2022-08-11T10:02:45;27.70;36.50
73254;DHT22;61474;50.834;4.552;2022-08-11T10:05:14;27.70;36.50
73254;DHT22;61474;50.834;4.552;2022-08-11T10:08:02;27.70;36.80
73254;DHT22;61474;50.834;4.552;2022-08-11T10:10:28;27.70;36.90
73254;DHT22;61474;50.834;4.552;2022-08-11T10:13:04;27.70;36.50
73254;DHT22;61474;50.834;4.552;2022-08-11T10:15:31;27.80;36.10
73254;DHT22;61474;50.834;4.552;2022-08-11T10:18:28;27.70;36.00
73254;DHT22;61474;50.834;4.552;2022-08-11T10:21:16;27.70;37.00
73254;DHT22;61474;50.834;4.552;2022-08-11T10:23:47;27.70;36.30
73254;DHT22;61474;50.834;4.552;2022-08-11T10:26:32;27.80;36.10
73254;DHT22;61474;50.834;4.552;2022-08-11T10:29:17;27.80;36.80
73254;DHT22;61474;50.834;4.552;2022-08-11T10:32:02;27.70;36.50
73254;DHT22;61474;50.834;4.552;2022-08-11T10:34:48;27.80;36.00
73254;DHT22;61474;50.834;4.552;2022-08-11T10:37:15;27.80;37.20
73254;DHT22;61474;50.834;4.552;2022-08-11T10:39:42;27.80;36.60
73254;DHT22;61474;50.834;4.552;2022-08-11T10:42:09;27.80;36.20
73254;DHT22;61474;50.834;4.552;2022-08-11T10:44:56;27.80;36.10
73254;DHT22;61474;50.834;4.552;2022-08-11T10:47:23;27.80;35.80
73254;DHT22;61474;50.834;4.552;2022-08-11T10:50:10;27.80;35.70
73254;DHT22;61474;50.834;4.552;2022-08-11T10:52:57;27.80;36.50
73254;DHT22;61474;50.834;4.552;2022-08-11T10:55:43;27.80;35.80
73254;DHT22;61474;50.834;4.552;2022-08-11T10:58:27;27.80;35.40
73254;DHT22;61474;50.834;4.552;2022-08-11T11:01:22;27.80;35.50
73254;DHT22;61474;50.834;4.552;2022-08-11T11:03:50;27.80;35.10
73254;DHT22;61474;50.834;4.552;2022-08-11T11:08:54;27.80;35.00
73254;DHT22;61474;50.834;4.552;2022-08-11T11:11:24;27.80;35.40
73254;DHT22;61474;50.834;4.552;2022-08-11T11:14:16;27.80;35.00
73254;DHT22;61474;50.834;4.552;2022-08-11T11:17:05;27.80;34.70
73254;DHT22;61474;50.834;4.552;2022-08-11T11:19:39;27.80;34.60
73254;DHT22;61474;50.834;4.552;2022-08-11T11:22:06;27.80;34.50
73254;DHT22;61474;50.834;4.552;2022-08-11T11:25:03;27.80;34.60
73254;DHT22;61474;50.834;4.552;2022-08-11T11:27:59;27.80;35.10
73254;DHT22;61474;50.834;4.552;2022-08-11T11:30:36;27.80;34.60
73254;DHT22;61474;50.834;4.552;2022-08-11T11:36:10;27.80;34.30
73254;DHT22;61474;50.834;4.552;2022-08-11T11:38:40;27.80;35.10
73254;DHT22;61474;50.834;4.552;2022-08-11T11:41:06;27.80;34.70
73254;DHT22;61474;50.834;4.552;2022-08-11T11:43:54;27.80;35.20
73254;DHT22;61474;50.834;4.552;2022-08-11T11:46:25;27.80;33.60
73254;DHT22;61474;50.834;4.552;2022-08-11T11:48:55;27.80;34.40
73254;DHT22;61474;50.834;4.552;2022-08-11T11:51:25;27.80;33.70
73254;DHT22;61474;50.834;4.552;2022-08-11T11:53:52;27.80;33.60
73254;DHT22;61474;50.834;4.552;2022-08-11T11:56:18;27.80;34.30
73254;DHT22;61474;50.834;4.552;2022-08-11T11:58:47;27.80;33.70
73254;DHT22;61474;50.834;4.552;2022-08-11T12:01:32;27.80;33.50
73254;DHT22;61474;50.834;4.552;2022-08-11T12:03:58;27.80;33.90
73254;DHT22;61474;50.834;4.552;2022-08-11T12:06:25;27.80;34.20
73254;DHT22;61474;50.834;4.552;2022-08-11T12:08:54;27.80;33.70
73254;DHT22;61474;50.834;4.552;2022-08-11T12:11:22;27.80;33.70
73254;DHT22;61474;50.834;4.552;2022-08-11T12:14:08;27.80;33.60
73254;DHT22;61474;50.834;4.552;2022-08-11T12:16:42;27.80;33.40
73254;DHT22;61474;50.834;4.552;2022-08-11T12:19:16;27.90;32.80
73254;DHT22;61474;50.834;4.552;2022-08-11T12:21:43;27.80;33.00
73254;DHT22;61474;50.834;4.552;2022-08-11T12:24:29;27.80;33.20
73254;DHT22;61474;50.834;4.552;2022-08-11T12:27:14;27.80;33.30
73254;DHT22;61474;50.834;4.552;2022-08-11T12:29:55;27.80;33.70
73254;DHT22;61474;50.834;4.552;2022-08-11T12:32:24;27.80;33.10
73254;DHT22;61474;50.834;4.552;2022-08-11T12:34:51;27.80;33.60
73254;DHT22;61474;50.834;4.552;2022-08-11T12:37:23;27.80;33.50
73254;DHT22;61474;50.834;4.552;2022-08-11T12:39:58;27.80;33.40
73254;DHT22;61474;50.834;4.552;2022-08-11T12:42:43;27.80;33.40
73254;DHT22;61474;50.834;4.552;2022-08-11T12:45:28;27.80;33.10
73254;DHT22;61474;50.834;4.552;2022-08-11T12:48:18;27.80;32.90
73254;DHT22;61474;50.834;4.552;2022-08-11T12:51:06;27.80;33.20
73254;DHT22;61474;50.834;4.552;2022-08-11T12:53:54;27.80;32.90
73254;DHT22;61474;50.834;4.552;2022-08-11T12:56:21;27.80;33.10
73254;DHT22;61474;50.834;4.552;2022-08-11T12:59:07;27.80;33.30
73254;DHT22;61474;50.834;4.552;2022-08-11T13:01:53;27.80;33.70
73254;DHT22;61474;50.834;4.552;2022-08-11T13:04:39;27.80;33.10
73254;DHT22;61474;50.834;4.552;2022-08-11T13:07:25;27.80;33.30
73254;DHT22;61474;50.834;4.552;2022-08-11T13:09:52;27.80;33.10
73254;DHT22;61474;50.834;4.552;2022-08-11T13:12:19;27.80;33.40
73254;DHT22;61474;50.834;4.552;2022-08-11T13:15:05;27.80;32.60
73254;DHT22;61474;50.834;4.552;2022-08-11T13:17:32;27.80;33.60
73254;DHT22;61474;50.834;4.552;2022-08-11T13:19:59;27.80;33.60
73254;DHT22;61474;50.834;4.552;2022-08-11T13:22:28;27.80;33.00
73254;DHT22;61474;50.834;4.552;2022-08-11T13:24:54;27.80;33.10
73254;DHT22;61474;50.834;4.552;2022-08-11T13:27:22;27.80;32.90
73254;DHT22;61474;50.834;4.552;2022-08-11T13:29:48;27.80;32.90
73254;DHT22;61474;50.834;4.552;2022-08-11T13:32:15;27.80;33.30
73254;DHT22;61474;50.834;4.552;2022-08-11T13:34:41;27.80;32.60
73254;DHT22;61474;50.834;4.552;2022-08-11T13:37:12;27.80;32.10
73254;DHT22;61474;50.834;4.552;2022-08-11T13:39:41;27.80;32.00
73254;DHT22;61474;50.834;4.552;2022-08-11T13:42:13;27.80;32.40
73254;DHT22;61474;50.834;4.552;2022-08-11T13:44:41;27.80;32.90
73254;DHT22;61474;50.834;4.552;2022-08-11T13:47:08;27.80;32.50
73254;DHT22;61474;50.834;4.552;2022-08-11T13:49:39;27.80;33.00
73254;DHT22;61474;50.834;4.552;2022-08-11T13:52:05;27.90;33.50
73254;DHT22;61474;50.834;4.552;2022-08-11T13:54:35;27.90;33.30
73254;DHT22;61474;50.834;4.552;2022-08-11T13:57:08;27.90;32.80
73254;DHT22;61474;50.834;4.552;2022-08-11T13:59:35;27.80;32.70
73254;DHT22;61474;50.834;4.552;2022-08-11T14:02:05;27.80;32.30
73254;DHT22;61474;50.834;4.552;2022-08-11T14:07:20;27.90;32.50
73254;DHT22;61474;50.834;4.552;2022-08-11T14:09:47;27.90;32.30
73254;DHT22;61474;50.834;4.552;2022-08-11T14:12:28;27.90;32.30
73254;DHT22;61474;50.834;4.552;2022-08-11T14:15:20;27.90;32.10
73254;DHT22;61474;50.834;4.552;2022-08-11T14:17:56;27.90;31.90
73254;DHT22;61474;50.834;4.552;2022-08-11T14:20:29;27.90;31.70
73254;DHT22;61474;50.834;4.552;2022-08-11T14:23:23;27.90;32.10
73254;DHT22;61474;50.834;4.552;2022-08-11T14:25:51;27.90;31.70
73254;DHT22;61474;50.834;4.552;2022-08-11T14:28:35;27.90;32.30
73254;DHT22;61474;50.834;4.552;2022-08-11T14:31:03;27.90;31.90
73254;DHT22;61474;50.834;4.552;2022-08-11T14:33:31;27.80;31.60
73254;DHT22;61474;50.834;4.552;2022-08-11T14:35:59;27.90;31.40
73254;DHT22;61474;50.834;4.552;2022-08-11T14:38:26;27.90;31.80
73254;DHT22;61474;50.834;4.552;2022-08-11T14:40:51;27.90;31.60
73254;DHT22;61474;50.834;4.552;2022-08-11T14:43:36;27.90;31.60
73254;DHT22;61474;50.834;4.552;2022-08-11T14:46:20;27.90;31.60
73254;DHT22;61474;50.834;4.552;2022-08-11T14:49:05;27.90;31.80
73254;DHT22;61474;50.834;4.552;2022-08-11T14:51:31;27.90;32.30
73254;DHT22;61474;50.834;4.552;2022-08-11T14:53:58;27.90;31.80
73254;DHT22;61474;50.834;4.552;2022-08-11T14:56:44;27.90;31.90
73254;DHT22;61474;50.834;4.552;2022-08-11T14:59:11;27.90;31.40
73254;DHT22;61474;50.834;4.552;2022-08-11T15:01:37;27.90;31.60
73254;DHT22;61474;50.834;4.552;2022-08-11T15:04:22;27.90;31.60
73254;DHT22;61474;50.834;4.552;2022-08-11T15:06:48;27.90;31.60
73254;DHT22;61474;50.834;4.552;2022-08-11T15:09:15;27.90;31.80
73254;DHT22;61474;50.834;4.552;2022-08-11T15:11:42;27.90;31.40
73254;DHT22;61474;50.834;4.552;2022-08-11T15:14:27;27.90;31.60
73254;DHT22;61474;50.834;4.552;2022-08-11T15:17:12;27.90;30.80
73254;DHT22;61474;50.834;4.552;2022-08-11T15:19:40;27.90;31.50
73254;DHT22;61474;50.834;4.552;2022-08-11T15:22:27;27.90;31.00
73254;DHT22;61474;50.834;4.552;2022-08-11T15:25:12;27.90;31.20
73254;DHT22;61474;50.834;4.552;2022-08-11T15:27:40;27.90;30.80
73254;DHT22;61474;50.834;4.552;2022-08-11T15:30:25;27.90;31.00
73254;DHT22;61474;50.834;4.552;2022-08-11T15:33:12;27.90;31.80
73254;DHT22;61474;50.834;4.552;2022-08-11T15:36:00;27.90;31.80
73254;DHT22;61474;50.834;4.552;2022-08-11T15:38:50;27.90;31.50
73254;DHT22;61474;50.834;4.552;2022-08-11T15:41:19;28.00;31.20
73254;DHT22;61474;50.834;4.552;2022-08-11T15:44:07;27.90;31.60
73254;DHT22;61474;50.834;4.552;2022-08-11T15:46:55;27.90;31.00
73254;DHT22;61474;50.834;4.552;2022-08-11T15:49:28;27.90;30.90
73254;DHT22;61474;50.834;4.552;2022-08-11T15:52:01;27.90;31.00
73254;DHT22;61474;50.834;4.552;2022-08-11T15:54:30;27.90;30.80
73254;DHT22;61474;50.834;4.552;2022-08-11T15:56:57;27.90;30.80
73254;DHT22;61474;50.834;4.552;2022-08-11T15:59:27;27.90;31.20
73254;DHT22;61474;50.834;4.552;2022-08-11T16:02:16;27.90;31.20
73254;DHT22;61474;50.834;4.552;2022-08-11T16:05:07;27.90;31.20
73254;DHT22;61474;50.834;4.552;2022-08-11T16:07:36;27.90;30.20
73254;DHT22;61474;50.834;4.552;2022-08-11T16:10:11;27.90;30.60
73254;DHT22;61474;50.834;4.552;2022-08-11T16:12:41;27.90;30.90
73254;DHT22;61474;50.834;4.552;2022-08-11T16:15:28;27.90;31.00
73254;DHT22;61474;50.834;4.552;2022-08-11T16:18:15;27.90;30.70
73254;DHT22;61474;50.834;4.552;2022-08-11T16:20:43;27.90;31.00
73254;DHT22;61474;50.834;4.552;2022-08-11T16:23:11;27.90;30.80
73254;DHT22;61474;50.834;4.552;2022-08-11T16:25:38;27.90;30.60
73254;DHT22;61474;50.834;4.552;2022-08-11T16:28:06;27.90;30.50
73254;DHT22;61474;50.834;4.552;2022-08-11T16:30:34;27.90;30.40
73254;DHT22;61474;50.834;4.552;2022-08-11T16:33:01;27.90;30.90
73254;DHT22;61474;50.834;4.552;2022-08-11T16:35:32;27.90;31.40
73254;DHT22;61474;50.834;4.552;2022-08-11T16:38:19;27.90;31.00
73254;DHT22;61474;50.834;4.552;2022-08-11T16:41:02;27.90;30.80
73254;DHT22;61474;50.834;4.552;2022-08-11T16:43:31;27.90;30.70
73254;DHT22;61474;50.834;4.552;2022-08-11T16:46:18;27.90;30.80
73254;DHT22;61474;50.834;4.552;2022-08-11T16:49:06;27.90;31.10
73254;DHT22;61474;50.834;4.552;2022-08-11T16:51:32;28.00;30.60
73254;DHT22;61474;50.834;4.552;2022-08-11T16:53:58;27.90;30.70
73254;DHT22;61474;50.834;4.552;2022-08-11T16:56:29;27.90;30.60
73254;DHT22;61474;50.834;4.552;2022-08-11T16:58:59;27.90;30.60
73254;DHT22;61474;50.834;4.552;2022-08-11T17:02:34;27.90;31.10
73254;DHT22;61474;50.834;4.552;2022-08-11T17:05:14;27.90;30.40
73254;DHT22;61474;50.834;4.552;2022-08-11T17:08:01;27.90;30.60
73254;DHT22;61474;50.834;4.552;2022-08-11T17:11:01;27.90;30.60
73254;DHT22;61474;50.834;4.552;2022-08-11T17:13:55;27.90;30.40
73254;DHT22;61474;50.834;4.552;2022-08-11T17:16:31;27.90;30.50
73254;DHT22;61474;50.834;4.552;2022-08-11T17:19:45;28.00;30.90
73254;DHT22;61474;50.834;4.552;2022-08-11T17:21:47;28.00;31.60
73254;DHT22;61474;50.834;4.552;2022-08-11T17:24:35;28.00;31.00
73254;DHT22;61474;50.834;4.552;2022-08-11T17:27:02;28.00;31.20
73254;DHT22;61474;50.834;4.552;2022-08-11T17:29:37;28.00;31.00
73254;DHT22;61474;50.834;4.552;2022-08-11T17:32:05;28.00;30.40
73254;DHT22;61474;50.834;4.552;2022-08-11T17:34:51;28.00;30.80
73254;DHT22;61474;50.834;4.552;2022-08-11T17:37:36;27.90;30.70
73254;DHT22;61474;50.834;4.552;2022-08-11T17:40:06;28.00;31.00
73254;DHT22;61474;50.834;4.552;2022-08-11T17:42:33;27.90;31.10
73254;DHT22;61474;50.834;4.552;2022-08-11T17:45:19;27.90;30.50
73254;DHT22;61474;50.834;4.552;2022-08-11T17:48:04;27.90;31.40
73254;DHT22;61474;50.834;4.552;2022-08-11T17:50:52;27.90;30.60
73254;DHT22;61474;50.834;4.552;2022-08-11T17:53:18;27.90;30.70
73254;DHT22;61474;50.834;4.552;2022-08-11T17:56:04;27.90;30.20
73254;DHT22;61474;50.834;4.552;2022-08-11T17:58:49;28.00;30.70
73254;DHT22;61474;50.834;4.552;2022-08-11T18:01:36;28.00;31.50
73254;DHT22;61474;50.834;4.552;2022-08-11T18:04:05;28.00;30.30
73254;DHT22;61474;50.834;4.552;2022-08-11T18:06:32;27.90;30.20
73254;DHT22;61474;50.834;4.552;2022-08-11T18:08:59;27.90;30.80
73254;DHT22;61474;50.834;4.552;2022-08-11T18:11:45;28.00;31.00
73254;DHT22;61474;50.834;4.552;2022-08-11T18:14:32;28.00;30.80
73254;DHT22;61474;50.834;4.552;2022-08-11T18:17:19;28.00;30.70
73254;DHT22;61474;50.834;4.552;2022-08-11T18:20:03;28.00;30.80
73254;DHT22;61474;50.834;4.552;2022-08-11T18:22:49;28.00;30.40
73254;DHT22;61474;50.834;4.552;2022-08-11T18:25:39;28.00;30.20
73254;DHT22;61474;50.834;4.552;2022-08-11T18:28:38;27.90;30.20
73254;DHT22;61474;50.834;4.552;2022-08-11T18:31:25;27.90;30.50
73254;DHT22;61474;50.834;4.552;2022-08-11T18:34:13;27.90;30.60
73254;DHT22;61474;50.834;4.552;2022-08-11T18:37:05;27.90;30.40
73254;DHT22;61474;50.834;4.552;2022-08-11T18:40:04;27.90;30.30
73254;DHT22;61474;50.834;4.552;2022-08-11T18:42:52;28.00;30.50
73254;DHT22;61474;50.834;4.552;2022-08-11T18:45:39;27.90;30.10
73254;DHT22;61474;50.834;4.552;2022-08-11T18:48:26;27.90;30.70
73254;DHT22;61474;50.834;4.552;2022-08-11T18:51:13;28.00;31.10
73254;DHT22;61474;50.834;4.552;2022-08-11T18:54:02;27.90;30.60
73254;DHT22;61474;50.834;4.552;2022-08-11T18:56:47;27.90;30.10
73254;DHT22;61474;50.834;4.552;2022-08-11T18:59:35;27.90;30.70
73254;DHT22;61474;50.834;4.552;2022-08-11T19:02:23;27.90;30.20
73254;DHT22;61474;50.834;4.552;2022-08-11T19:05:08;27.90;30.70
73254;DHT22;61474;50.834;4.552;2022-08-11T19:07:54;27.90;30.30
73254;DHT22;61474;50.834;4.552;2022-08-11T19:10:42;27.90;30.30
73254;DHT22;61474;50.834;4.552;2022-08-11T19:13:28;27.90;30.70
73254;DHT22;61474;50.834;4.552;2022-08-11T19:16:13;27.90;30.30
73254;DHT22;61474;50.834;4.552;2022-08-11T19:19:00;27.90;30.30
73254;DHT22;61474;50.834;4.552;2022-08-11T19:21:45;28.00;30.40
73254;DHT22;61474;50.834;4.552;2022-08-11T19:24:30;27.90;30.60
73254;DHT22;61474;50.834;4.552;2022-08-11T19:27:15;27.90;30.60
73254;DHT22;61474;50.834;4.552;2022-08-11T19:30:00;27.90;30.90
73254;DHT22;61474;50.834;4.552;2022-08-11T19:32:45;27.90;31.50
73254;DHT22;61474;50.834;4.552;2022-08-11T19:35:30;27.90;31.10
73254;DHT22;61474;50.834;4.552;2022-08-11T19:38:15;27.90;30.80
73254;DHT22;61474;50.834;4.552;2022-08-11T19:40:59;27.90;31.20
73254;DHT22;61474;50.834;4.552;2022-08-11T19:43:45;27.90;30.60
73254;DHT22;61474;50.834;4.552;2022-08-11T19:46:30;27.90;30.80
73254;DHT22;61474;50.834;4.552;2022-08-11T19:49:15;27.90;30.30
73254;DHT22;61474;50.834;4.552;2022-08-11T19:52:02;27.90;30.50
73254;DHT22;61474;50.834;4.552;2022-08-11T19:54:48;27.90;30.80
73254;DHT22;61474;50.834;4.552;2022-08-11T19:57:34;27.90;30.40
73254;DHT22;61474;50.834;4.552;2022-08-11T20:00:19;27.90;31.00